sensor_id;sensor_type;location;lat;lon;timestamp;temperature;humidity
13659;DHT22;6902;52.158;11.574;2022-11-21T00:01:17;-0.10;99.90
13659;DHT22;6902;52.158;11.574;2022-11-21T00:03:45;-0.20;99.90
13659;DHT22;6902;52.158;11.574;2022-11-21T00:06:12;-0.10;99.90
13659;DHT22;6902;52.158;11.574;2022-11-21T00:08:40;0.00;99.90
13659;DHT22;6902;52.158;11.574;2022-11-21T00:11:07;-0.20;99.90
13659;DHT22;6902;52.158;11.574;2022-11-21T00:13:34;0.00;99.90
13659;DHT22;6902;52.158;11.574;2022-11-21T00:16:04;-0.10;99.90
13659;DHT22;6902;52.158;11.574;2022-11-21T00:18:31;0.20;99.90
13659;DHT22;6902;52.158;11.574;2022-11-21T00:21:03;0.20;99.90
13659;DHT22;6902;52.158;11.574;2022-11-21T00:23:31;0.10;99.90
13659;DHT22;6902;52.158;11.574;2022-11-21T00:25:58;0.00;99.90
13659;DHT22;6902;52.158;11.574;2022-11-21T00:28:29;0.00;99.90
13659;DHT22;6902;52.158;11.574;2022-11-21T00:30:56;0.10;99.90
13659;DHT22;6902;52.158;11.574;2022-11-21T00:33:25;0.10;99.90
13659;DHT22;6902;52.158;11.574;2022-11-21T00:35:52;0.10;99.90
13659;DHT22;6902;52.158;11.574;2022-11-21T00:38:19;0.10;99.90
13659;DHT22;6902;52.158;11.574;2022-11-21T00:40:49;0.10;99.90
13659;DHT22;6902;52.158;11.574;2022-11-21T00:43:16;0.30;99.90
13659;DHT22;6902;52.158;11.574;2022-11-21T00:45:45;0.20;99.90
13659;DHT22;6902;52.158;11.574;2022-11-21T00:48:13;0.10;99.90
13659;DHT22;6902;52.158;11.574;2022-11-21T00:50:41;0.20;99.90
13659;DHT22;6902;52.158;11.574;2022-11-21T00:53:08;0.30;99.90
13659;DHT22;6902;52.158;11.574;2022-11-21T00:55:35;0.10;99.90
13659;DHT22;6902;52.158;11.574;2022-11-21T00:58:03;0.10;99.90
13659;DHT22;6902;52.158;11.574;2022-11-21T01:00:30;0.40;99.90
13659;DHT22;6902;52.158;11.574;2022-11-21T01:02:57;0.40;99.90
13659;DHT22;6902;52.158;11.574;2022-11-21T01:05:25;0.30;99.90
13659;DHT22;6902;52.158;11.574;2022-11-21T01:07:53;0.20;99.90
13659;DHT22;6902;52.158;11.574;2022-11-21T01:10:20;0.00;99.90
13659;DHT22;6902;52.158;11.574;2022-11-21T01:12:47;0.20;99.90
13659;DHT22;6902;52.158;11.574;2022-11-21T01:15:15;0.20;99.90
13659;DHT22;6902;52.158;11.574;2022-11-21T01:17:42;0.20;99.90
13659;DHT22;6902;52.158;11.574;2022-11-21T01:20:10;0.50;99.90
13659;DHT22;6902;52.158;11.574;2022-11-21T01:22:37;0.60;99.90
13659;DHT22;6902;52.158;11.574;2022-11-21T01:25:06;0.30;99.90
13659;DHT22;6902;52.158;11.574;2022-11-21T01:27:34;0.40;99.90
13659;DHT22;6902;52.158;11.574;2022-11-21T01:30:01;0.60;99.90
13659;DHT22;6902;52.158;11.574;2022-11-21T01:32:28;0.20;99.90
13659;DHT22;6902;52.158;11.574;2022-11-21T01:34:55;0.20;99.90
13659;DHT22;6902;52.158;11.574;2022-11-21T01:37:23;0.40;99.90
13659;DHT22;6902;52.158;11.574;2022-11-21T01:39:50;0.00;99.90
13659;DHT22;6902;52.158;11.574;2022-11-21T01:42:21;0.20;99.90
13659;DHT22;6902;52.158;11.574;2022-11-21T01:44:50;0.10;99.90
13659;DHT22;6902;52.158;11.574;2022-11-21T01:47:18;0.40;99.90
13659;DHT22;6902;52.158;11.574;2022-11-21T01:49:47;0.20;99.90
13659;DHT22;6902;52.158;11.574;2022-11-21T01:52:18;0.10;99.90
13659;DHT22;6902;52.158;11.574;2022-11-21T01:54:48;0.30;99.90
13659;DHT22;6902;52.158;11.574;2022-11-21T01:57:23;0.10;99.90
13659;DHT22;6902;52.158;11.574;2022-11-21T01:59:56;0.20;99.90
13659;DHT22;6902;52.158;11.574;2022-11-21T02:02:28;0.40;99.90
13659;DHT22;6902;52.158;11.574;2022-11-21T02:04:58;0.30;99.90
13659;DHT22;6902;52.158;11.574;2022-11-21T02:07:27;0.20;99.90
13659;DHT22;6902;52.158;11.574;2022-11-21T02:09:58;0.10;99.90
13659;DHT22;6902;52.158;11.574;2022-11-21T02:12:31;0.10;99.90
13659;DHT22;6902;52.158;11.574;2022-11-21T02:14:59;0.10;99.90
13659;DHT22;6902;52.158;11.574;2022-11-21T02:17:28;0.40;99.90
13659;DHT22;6902;52.158;11.574;2022-11-21T02:19:57;0.30;99.90
13659;DHT22;6902;52.158;11.574;2022-11-21T02:22:31;0.10;99.90
13659;DHT22;6902;52.158;11.574;2022-11-21T02:25:04;0.40;99.90
13659;DHT22;6902;52.158;11.574;2022-11-21T02:27:32;0.20;99.90
13659;DHT22;6902;52.158;11.574;2022-11-21T02:30:01;0.30;99.90
13659;DHT22;6902;52.158;11.574;2022-11-21T02:32:32;0.10;99.90
13659;DHT22;6902;52.158;11.574;2022-11-21T02:34:59;0.10;99.90
13659;DHT22;6902;52.158;11.574;2022-11-21T02:37:27;0.00;99.90
13659;DHT22;6902;52.158;11.574;2022-11-21T02:39:56;0.00;99.90
13659;DHT22;6902;52.158;11.574;2022-11-21T02:42:30;0.20;99.90
13659;DHT22;6902;52.158;11.574;2022-11-21T02:45:06;-0.10;99.90
13659;DHT22;6902;52.158;11.574;2022-11-21T02:47:37;0.30;99.90
13659;DHT22;6902;52.158;11.574;2022-11-21T02:50:11;0.00;99.90
13659;DHT22;6902;52.158;11.574;2022-11-21T02:52:39;0.30;99.90
13659;DHT22;6902;52.158;11.574;2022-11-21T02:55:07;0.30;99.90
13659;DHT22;6902;52.158;11.574;2022-11-21T02:57:38;0.10;99.90
13659;DHT22;6902;52.158;11.574;2022-11-21T03:00:06;0.30;99.90
13659;DHT22;6902;52.158;11.574;2022-11-21T03:02:33;0.10;99.90
13659;DHT22;6902;52.158;11.574;2022-11-21T03:05:01;0.00;99.90
13659;DHT22;6902;52.158;11.574;2022-11-21T03:07:29;0.30;99.90
13659;DHT22;6902;52.158;11.574;2022-11-21T03:09:56;0.20;99.90
13659;DHT22;6902;52.158;11.574;2022-11-21T03:12:23;0.10;99.90
13659;DHT22;6902;52.158;11.574;2022-11-21T03:14:51;0.00;99.90
13659;DHT22;6902;52.158;11.574;2022-11-21T03:17:18;0.10;99.90
13659;DHT22;6902;52.158;11.574;2022-11-21T03:19:46;0.30;99.90
13659;DHT22;6902;52.158;11.574;2022-11-21T03:22:14;0.20;99.90
13659;DHT22;6902;52.158;11.574;2022-11-21T03:24:41;0.10;99.90
13659;DHT22;6902;52.158;11.574;2022-11-21T03:27:09;0.30;99.90
13659;DHT22;6902;52.158;11.574;2022-11-21T03:29:36;-0.10;99.90
13659;DHT22;6902;52.158;11.574;2022-11-21T03:32:04;0.20;99.90
13659;DHT22;6902;52.158;11.574;2022-11-21T03:34:31;0.00;99.90
13659;DHT22;6902;52.158;11.574;2022-11-21T03:36:58;0.30;99.90
13659;DHT22;6902;52.158;11.574;2022-11-21T03:39:26;0.00;99.90
13659;DHT22;6902;52.158;11.574;2022-11-21T03:41:53;0.00;99.90
13659;DHT22;6902;52.158;11.574;2022-11-21T03:44:20;0.30;99.90
13659;DHT22;6902;52.158;11.574;2022-11-21T03:46:47;0.00;99.90
13659;DHT22;6902;52.158;11.574;2022-11-21T03:49:16;-0.10;99.90
13659;DHT22;6902;52.158;11.574;2022-11-21T03:51:43;0.20;99.90
13659;DHT22;6902;52.158;11.574;2022-11-21T03:54:11;0.20;99.90
13659;DHT22;6902;52.158;11.574;2022-11-21T03:56:38;0.20;99.90
13659;DHT22;6902;52.158;11.574;2022-11-21T03:59:06;0.20;99.90
13659;DHT22;6902;52.158;11.574;2022-11-21T04:01:33;0.10;99.90
13659;DHT22;6902;52.158;11.574;2022-11-21T04:04:00;-0.10;99.90
13659;DHT22;6902;52.158;11.574;2022-11-21T04:06:29;-0.10;99.90
13659;DHT22;6902;52.158;11.574;2022-11-21T04:08:57;-0.20;99.90
13659;DHT22;6902;52.158;11.574;2022-11-21T04:11:24;-0.20;99.90
13659;DHT22;6902;52.158;11.574;2022-11-21T04:13:51;0.00;99.90
13659;DHT22;6902;52.158;11.574;2022-11-21T04:16:18;-0.10;99.90
13659;DHT22;6902;52.158;11.574;2022-11-21T04:18:46;0.00;99.90
13659;DHT22;6902;52.158;11.574;2022-11-21T04:21:13;-0.10;99.90
13659;DHT22;6902;52.158;11.574;2022-11-21T04:23:42;0.10;99.90
13659;DHT22;6902;52.158;11.574;2022-11-21T04:26:09;-0.10;99.90
13659;DHT22;6902;52.158;11.574;2022-11-21T04:28:37;-0.10;99.90
13659;DHT22;6902;52.158;11.574;2022-11-21T04:31:05;-0.20;99.90
13659;DHT22;6902;52.158;11.574;2022-11-21T04:33:32;0.00;99.90
13659;DHT22;6902;52.158;11.574;2022-11-21T04:36:00;0.00;99.90
13659;DHT22;6902;52.158;11.574;2022-11-21T04:38:27;-0.20;99.90
13659;DHT22;6902;52.158;11.574;2022-11-21T04:40:56;0.00;99.90
13659;DHT22;6902;52.158;11.574;2022-11-21T04:43:23;0.10;99.90
13659;DHT22;6902;52.158;11.574;2022-11-21T04:45:50;0.20;99.90
13659;DHT22;6902;52.158;11.574;2022-11-21T04:48:18;0.20;99.90
13659;DHT22;6902;52.158;11.574;2022-11-21T04:50:45;0.00;99.90
13659;DHT22;6902;52.158;11.574;2022-11-21T04:53:12;0.20;99.90
13659;DHT22;6902;52.158;11.574;2022-11-21T04:55:39;-0.10;99.90
13659;DHT22;6902;52.158;11.574;2022-11-21T04:58:08;0.20;99.90
13659;DHT22;6902;52.158;11.574;2022-11-21T05:00:35;-0.20;99.90
13659;DHT22;6902;52.158;11.574;2022-11-21T05:03:02;0.00;99.90
13659;DHT22;6902;52.158;11.574;2022-11-21T05:05:30;0.10;99.90
13659;DHT22;6902;52.158;11.574;2022-11-21T05:07:57;-0.10;99.90
13659;DHT22;6902;52.158;11.574;2022-11-21T05:10:24;-0.10;99.90
13659;DHT22;6902;52.158;11.574;2022-11-21T05:12:59;-0.10;99.90
13659;DHT22;6902;52.158;11.574;2022-11-21T05:15:44;0.30;99.90
13659;DHT22;6902;52.158;11.574;2022-11-21T05:18:17;0.20;99.90
13659;DHT22;6902;52.158;11.574;2022-11-21T05:20:44;-0.10;99.90
13659;DHT22;6902;52.158;11.574;2022-11-21T05:23:11;0.20;99.90
13659;DHT22;6902;52.158;11.574;2022-11-21T05:25:39;-0.10;99.90
13659;DHT22;6902;52.158;11.574;2022-11-21T05:28:06;0.00;99.90
13659;DHT22;6902;52.158;11.574;2022-11-21T05:30:33;0.00;99.90
13659;DHT22;6902;52.158;11.574;2022-11-21T05:33:04;0.00;99.90
13659;DHT22;6902;52.158;11.574;2022-11-21T05:35:32;0.00;99.90
13659;DHT22;6902;52.158;11.574;2022-11-21T05:37:59;0.10;99.90
13659;DHT22;6902;52.158;11.574;2022-11-21T05:40:26;-0.20;99.90
13659;DHT22;6902;52.158;11.574;2022-11-21T05:42:53;0.00;99.90
13659;DHT22;6902;52.158;11.574;2022-11-21T05:45:43;-0.10;99.90
13659;DHT22;6902;52.158;11.574;2022-11-21T05:48:12;0.10;99.90
13659;DHT22;6902;52.158;11.574;2022-11-21T05:50:38;0.10;99.90
13659;DHT22;6902;52.158;11.574;2022-11-21T05:53:06;-0.10;99.90
13659;DHT22;6902;52.158;11.574;2022-11-21T05:55:33;-0.10;99.90
13659;DHT22;6902;52.158;11.574;2022-11-21T05:58:01;0.20;99.90
13659;DHT22;6902;52.158;11.574;2022-11-21T06:00:28;0.00;99.90
13659;DHT22;6902;52.158;11.574;2022-11-21T06:02:56;0.00;99.90
13659;DHT22;6902;52.158;11.574;2022-11-21T06:05:41;0.30;99.90
13659;DHT22;6902;52.158;11.574;2022-11-21T06:08:08;0.00;99.90
13659;DHT22;6902;52.158;11.574;2022-11-21T06:10:38;0.10;99.90
13659;DHT22;6902;52.158;11.574;2022-11-21T06:13:06;0.20;99.90
13659;DHT22;6902;52.158;11.574;2022-11-21T06:15:51;0.20;99.90
13659;DHT22;6902;52.158;11.574;2022-11-21T06:18:20;0.10;99.90
13659;DHT22;6902;52.158;11.574;2022-11-21T06:20:48;0.10;99.90
13659;DHT22;6902;52.158;11.574;2022-11-21T06:23:16;0.20;99.90
13659;DHT22;6902;52.158;11.574;2022-11-21T06:25:44;0.10;99.90
13659;DHT22;6902;52.158;11.574;2022-11-21T06:28:11;-0.10;99.90
13659;DHT22;6902;52.158;11.574;2022-11-21T06:30:39;0.10;99.90
13659;DHT22;6902;52.158;11.574;2022-11-21T06:33:06;0.00;99.90
13659;DHT22;6902;52.158;11.574;2022-11-21T06:35:36;-0.30;99.90
13659;DHT22;6902;52.158;11.574;2022-11-21T06:38:05;0.00;99.90
13659;DHT22;6902;52.158;11.574;2022-11-21T06:40:32;-0.20;99.90
13659;DHT22;6902;52.158;11.574;2022-11-21T06:43:00;-0.40;99.90
13659;DHT22;6902;52.158;11.574;2022-11-21T06:45:27;0.00;99.90
13659;DHT22;6902;52.158;11.574;2022-11-21T06:47:55;-0.20;99.90
13659;DHT22;6902;52.158;11.574;2022-11-21T06:50:22;-0.30;99.90
13659;DHT22;6902;52.158;11.574;2022-11-21T06:52:49;-0.40;99.90
13659;DHT22;6902;52.158;11.574;2022-11-21T06:55:18;-0.20;99.90
13659;DHT22;6902;52.158;11.574;2022-11-21T06:57:46;-0.40;99.90
13659;DHT22;6902;52.158;11.574;2022-11-21T07:00:14;-0.30;99.90
13659;DHT22;6902;52.158;11.574;2022-11-21T07:02:41;-0.20;99.90
13659;DHT22;6902;52.158;11.574;2022-11-21T07:05:08;-0.50;99.90
13659;DHT22;6902;52.158;11.574;2022-11-21T07:10:03;-0.50;99.90
13659;DHT22;6902;52.158;11.574;2022-11-21T07:12:33;-0.50;99.90
13659;DHT22;6902;52.158;11.574;2022-11-21T07:15:18;-0.70;99.90
13659;DHT22;6902;52.158;11.574;2022-11-21T07:17:45;-0.50;99.90
13659;DHT22;6902;52.158;11.574;2022-11-21T07:20:12;-0.50;99.90
13659;DHT22;6902;52.158;11.574;2022-11-21T07:22:39;-0.70;99.90
13659;DHT22;6902;52.158;11.574;2022-11-21T07:25:07;-0.70;99.90
13659;DHT22;6902;52.158;11.574;2022-11-21T07:27:36;-0.60;99.90
13659;DHT22;6902;52.158;11.574;2022-11-21T07:30:04;-0.60;99.90
13659;DHT22;6902;52.158;11.574;2022-11-21T07:32:31;-0.40;99.90
13659;DHT22;6902;52.158;11.574;2022-11-21T07:34:58;-0.70;99.90
13659;DHT22;6902;52.158;11.574;2022-11-21T07:37:26;-0.60;99.90
13659;DHT22;6902;52.158;11.574;2022-11-21T07:39:53;-0.50;99.90
13659;DHT22;6902;52.158;11.574;2022-11-21T07:42:20;-0.50;99.90
13659;DHT22;6902;52.158;11.574;2022-11-21T07:44:49;-0.60;99.90
13659;DHT22;6902;52.158;11.574;2022-11-21T07:47:16;-0.50;99.90
13659;DHT22;6902;52.158;11.574;2022-11-21T07:49:44;-0.40;99.90
13659;DHT22;6902;52.158;11.574;2022-11-21T07:52:12;-0.50;99.90
13659;DHT22;6902;52.158;11.574;2022-11-21T07:54:39;-0.10;99.90
13659;DHT22;6902;52.158;11.574;2022-11-21T07:57:06;0.00;99.90
13659;DHT22;6902;52.158;11.574;2022-11-21T07:59:34;0.40;99.90
13659;DHT22;6902;52.158;11.574;2022-11-21T08:02:03;-0.10;99.90
13659;DHT22;6902;52.158;11.574;2022-11-21T08:04:30;0.20;99.90
13659;DHT22;6902;52.158;11.574;2022-11-21T08:06:58;0.30;99.90
13659;DHT22;6902;52.158;11.574;2022-11-21T08:09:27;0.40;99.90
13659;DHT22;6902;52.158;11.574;2022-11-21T08:11:54;0.60;99.90
13659;DHT22;6902;52.158;11.574;2022-11-21T08:14:22;0.80;99.90
13659;DHT22;6902;52.158;11.574;2022-11-21T08:16:51;1.00;99.90
13659;DHT22;6902;52.158;11.574;2022-11-21T08:19:19;0.90;99.90
13659;DHT22;6902;52.158;11.574;2022-11-21T08:21:46;1.20;99.90
13659;DHT22;6902;52.158;11.574;2022-11-21T08:24:14;1.30;99.90
13659;DHT22;6902;52.158;11.574;2022-11-21T08:26:42;1.40;99.90
13659;DHT22;6902;52.158;11.574;2022-11-21T08:29:10;1.50;99.90
13659;DHT22;6902;52.158;11.574;2022-11-21T08:31:38;1.60;99.90
13659;DHT22;6902;52.158;11.574;2022-11-21T08:34:05;1.70;99.90
13659;DHT22;6902;52.158;11.574;2022-11-21T08:36:34;1.90;99.90
13659;DHT22;6902;52.158;11.574;2022-11-21T08:39:01;2.00;99.90
13659;DHT22;6902;52.158;11.574;2022-11-21T08:41:29;2.10;99.90
13659;DHT22;6902;52.158;11.574;2022-11-21T08:44:13;2.00;99.90
13659;DHT22;6902;52.158;11.574;2022-11-21T08:46:41;2.20;99.90
13659;DHT22;6902;52.158;11.574;2022-11-21T08:49:08;2.30;99.90
13659;DHT22;6902;52.158;11.574;2022-11-21T08:51:37;2.10;99.90
13659;DHT22;6902;52.158;11.574;2022-11-21T08:54:05;2.30;99.90
13659;DHT22;6902;52.158;11.574;2022-11-21T08:56:33;2.10;99.90
13659;DHT22;6902;52.158;11.574;2022-11-21T08:59:00;2.40;99.90
13659;DHT22;6902;52.158;11.574;2022-11-21T09:01:27;2.40;99.90
13659;DHT22;6902;52.158;11.574;2022-11-21T09:03:54;2.40;99.90
13659;DHT22;6902;52.158;11.574;2022-11-21T09:06:21;2.20;99.90
13659;DHT22;6902;52.158;11.574;2022-11-21T09:08:50;2.40;99.90
13659;DHT22;6902;52.158;11.574;2022-11-21T09:11:17;2.40;99.90
13659;DHT22;6902;52.158;11.574;2022-11-21T09:13:44;2.40;99.90
13659;DHT22;6902;52.158;11.574;2022-11-21T09:16:32;2.60;99.90
13659;DHT22;6902;52.158;11.574;2022-11-21T09:21:47;2.60;99.90
13659;DHT22;6902;52.158;11.574;2022-11-21T09:24:17;2.60;99.90
13659;DHT22;6902;52.158;11.574;2022-11-21T09:26:44;2.60;99.90
13659;DHT22;6902;52.158;11.574;2022-11-21T09:29:12;2.80;99.90
13659;DHT22;6902;52.158;11.574;2022-11-21T09:31:41;3.00;99.90
13659;DHT22;6902;52.158;11.574;2022-11-21T09:34:09;2.80;99.90
13659;DHT22;6902;52.158;11.574;2022-11-21T09:36:36;2.80;99.90
13659;DHT22;6902;52.158;11.574;2022-11-21T10:01:55;3.00;99.90
13659;DHT22;6902;52.158;11.574;2022-11-21T10:04:23;3.20;99.90
13659;DHT22;6902;52.158;11.574;2022-11-21T10:06:57;3.20;99.90
13659;DHT22;6902;52.158;11.574;2022-11-21T10:09:38;2.80;99.90
13659;DHT22;6902;52.158;11.574;2022-11-21T10:32:51;3.10;99.90
13659;DHT22;6902;52.158;11.574;2022-11-21T10:35:22;3.30;99.90
13659;DHT22;6902;52.158;11.574;2022-11-21T10:37:52;3.40;99.90
13659;DHT22;6902;52.158;11.574;2022-11-21T10:40:28;3.10;99.90
13659;DHT22;6902;52.158;11.574;2022-11-21T10:43:00;3.00;99.90
13659;DHT22;6902;52.158;11.574;2022-11-21T10:45:51;3.20;99.90
13659;DHT22;6902;52.158;11.574;2022-11-21T10:48:18;3.60;99.90
13659;DHT22;6902;52.158;11.574;2022-11-21T10:50:57;3.80;99.90
13659;DHT22;6902;52.158;11.574;2022-11-21T10:53:28;4.30;99.90
13659;DHT22;6902;52.158;11.574;2022-11-21T10:56:16;4.50;99.90
13659;DHT22;6902;52.158;11.574;2022-11-21T10:58:48;4.40;99.90
13659;DHT22;6902;52.158;11.574;2022-11-21T17:36:26;0.10;99.90
13659;DHT22;6902;52.158;11.574;2022-11-21T17:38:54;0.10;99.90
13659;DHT22;6902;52.158;11.574;2022-11-21T17:41:23;0.10;99.90
13659;DHT22;6902;52.158;11.574;2022-11-21T17:43:54;0.10;99.90
13659;DHT22;6902;52.158;11.574;2022-11-21T17:46:23;0.10;99.90
13659;DHT22;6902;52.158;11.574;2022-11-21T17:48:51;0.10;99.90
13659;DHT22;6902;52.158;11.574;2022-11-21T17:51:20;0.10;99.90
13659;DHT22;6902;52.158;11.574;2022-11-21T17:53:49;0.10;99.90
13659;DHT22;6902;52.158;11.574;2022-11-21T17:56:18;0.10;99.90
13659;DHT22;6902;52.158;11.574;2022-11-21T17:58:45;0.00;99.90
13659;DHT22;6902;52.158;11.574;2022-11-21T18:01:14;0.00;99.90
13659;DHT22;6902;52.158;11.574;2022-11-21T18:03:44;0.10;99.90
13659;DHT22;6902;52.158;11.574;2022-11-21T18:06:13;0.10;99.90
13659;DHT22;6902;52.158;11.574;2022-11-21T18:08:42;0.10;99.90
13659;DHT22;6902;52.158;11.574;2022-11-21T18:11:11;0.10;99.90
13659;DHT22;6902;52.158;11.574;2022-11-21T18:13:39;0.20;99.90
13659;DHT22;6902;52.158;11.574;2022-11-21T18:16:09;0.20;99.90
13659;DHT22;6902;52.158;11.574;2022-11-21T18:18:38;0.20;99.90
13659;DHT22;6902;52.158;11.574;2022-11-21T18:21:07;0.20;99.90
13659;DHT22;6902;52.158;11.574;2022-11-21T18:23:34;0.20;99.90
13659;DHT22;6902;52.158;11.574;2022-11-21T18:26:03;0.20;99.90
13659;DHT22;6902;52.158;11.574;2022-11-21T18:28:30;0.20;99.90
13659;DHT22;6902;52.158;11.574;2022-11-21T18:31:05;0.20;99.90
13659;DHT22;6902;52.158;11.574;2022-11-21T18:33:32;0.20;99.90
13659;DHT22;6902;52.158;11.574;2022-11-21T18:36:01;0.20;99.90
13659;DHT22;6902;52.158;11.574;2022-11-21T18:38:30;0.20;99.90
13659;DHT22;6902;52.158;11.574;2022-11-21T18:41:02;0.20;99.90
13659;DHT22;6902;52.158;11.574;2022-11-21T18:43:30;0.20;99.90
13659;DHT22;6902;52.158;11.574;2022-11-21T18:46:01;0.20;99.90
13659;DHT22;6902;52.158;11.574;2022-11-21T18:48:28;0.20;99.90
13659;DHT22;6902;52.158;11.574;2022-11-21T18:51:01;0.20;99.90
13659;DHT22;6902;52.158;11.574;2022-11-21T18:53:29;0.20;99.90
13659;DHT22;6902;52.158;11.574;2022-11-21T18:55:56;0.20;99.90
13659;DHT22;6902;52.158;11.574;2022-11-21T18:58:24;0.20;99.90
13659;DHT22;6902;52.158;11.574;2022-11-21T19:00:58;0.20;99.90
13659;DHT22;6902;52.158;11.574;2022-11-21T19:03:25;0.20;99.90
13659;DHT22;6902;52.158;11.574;2022-11-21T19:05:55;0.20;99.90
13659;DHT22;6902;52.158;11.574;2022-11-21T19:08:24;0.20;99.90
13659;DHT22;6902;52.158;11.574;2022-11-21T19:10:52;0.20;99.90
13659;DHT22;6902;52.158;11.574;2022-11-21T19:13:20;0.20;99.90
13659;DHT22;6902;52.158;11.574;2022-11-21T19:15:47;0.20;99.90
13659;DHT22;6902;52.158;11.574;2022-11-21T19:18:14;0.30;99.90
13659;DHT22;6902;52.158;11.574;2022-11-21T19:20:42;0.30;99.90
13659;DHT22;6902;52.158;11.574;2022-11-21T19:23:09;0.30;99.90
13659;DHT22;6902;52.158;11.574;2022-11-21T19:25:38;0.30;99.90
13659;DHT22;6902;52.158;11.574;2022-11-21T19:28:05;0.30;99.90
13659;DHT22;6902;52.158;11.574;2022-11-21T19:30:32;0.30;99.90
13659;DHT22;6902;52.158;11.574;2022-11-21T19:33:00;0.30;99.90
13659;DHT22;6902;52.158;11.574;2022-11-21T19:35:28;0.30;99.90
13659;DHT22;6902;52.158;11.574;2022-11-21T19:37:55;0.40;99.90
13659;DHT22;6902;52.158;11.574;2022-11-21T19:40:23;0.40;99.90
13659;DHT22;6902;52.158;11.574;2022-11-21T19:42:52;0.40;99.90
13659;DHT22;6902;52.158;11.574;2022-11-21T19:45:19;0.40;99.90
13659;DHT22;6902;52.158;11.574;2022-11-21T19:47:46;0.40;99.90
13659;DHT22;6902;52.158;11.574;2022-11-21T19:50:15;0.30;99.90
13659;DHT22;6902;52.158;11.574;2022-11-21T19:52:42;0.40;99.90
13659;DHT22;6902;52.158;11.574;2022-11-21T19:55:09;0.30;99.90
13659;DHT22;6902;52.158;11.574;2022-11-21T19:57:36;0.30;99.90
13659;DHT22;6902;52.158;11.574;2022-11-21T20:00:06;0.20;99.90
13659;DHT22;6902;52.158;11.574;2022-11-21T20:02:35;0.20;99.90
13659;DHT22;6902;52.158;11.574;2022-11-21T20:05:03;0.20;99.90
13659;DHT22;6902;52.158;11.574;2022-11-21T20:07:31;0.10;99.90
13659;DHT22;6902;52.158;11.574;2022-11-21T20:09:58;0.10;99.90
13659;DHT22;6902;52.158;11.574;2022-11-21T20:12:26;0.10;99.90
13659;DHT22;6902;52.158;11.574;2022-11-21T20:14:53;0.10;99.90
13659;DHT22;6902;52.158;11.574;2022-11-21T20:17:22;0.10;99.90
13659;DHT22;6902;52.158;11.574;2022-11-21T20:19:49;0.10;99.90
13659;DHT22;6902;52.158;11.574;2022-11-21T20:22:17;0.10;99.90
13659;DHT22;6902;52.158;11.574;2022-11-21T20:24:45;0.10;99.90
13659;DHT22;6902;52.158;11.574;2022-11-21T20:27:12;0.10;99.90
13659;DHT22;6902;52.158;11.574;2022-11-21T20:29:39;0.10;99.90
13659;DHT22;6902;52.158;11.574;2022-11-21T20:32:06;0.10;99.90
13659;DHT22;6902;52.158;11.574;2022-11-21T20:34:35;0.10;99.90
13659;DHT22;6902;52.158;11.574;2022-11-21T20:37:02;0.10;99.90
13659;DHT22;6902;52.158;11.574;2022-11-21T20:39:29;0.10;99.90
13659;DHT22;6902;52.158;11.574;2022-11-21T20:41:57;0.10;99.90
13659;DHT22;6902;52.158;11.574;2022-11-21T20:44:24;0.10;99.90
13659;DHT22;6902;52.158;11.574;2022-11-21T20:46:52;0.10;99.90
13659;DHT22;6902;52.158;11.574;2022-11-21T20:49:19;0.10;99.90
13659;DHT22;6902;52.158;11.574;2022-11-21T20:51:47;0.10;99.90
13659;DHT22;6902;52.158;11.574;2022-11-21T20:54:16;0.10;99.90
13659;DHT22;6902;52.158;11.574;2022-11-21T20:56:43;0.10;99.90
13659;DHT22;6902;52.158;11.574;2022-11-21T20:59:11;0.10;99.90
13659;DHT22;6902;52.158;11.574;2022-11-21T21:01:38;0.10;99.90
13659;DHT22;6902;52.158;11.574;2022-11-21T21:04:05;0.10;99.90
13659;DHT22;6902;52.158;11.574;2022-11-21T21:06:34;0.10;99.90
13659;DHT22;6902;52.158;11.574;2022-11-21T21:09:04;0.10;99.90
13659;DHT22;6902;52.158;11.574;2022-11-21T21:11:31;0.10;99.90
13659;DHT22;6902;52.158;11.574;2022-11-21T21:13:58;0.10;99.90
13659;DHT22;6902;52.158;11.574;2022-11-21T21:16:26;0.10;99.90
13659;DHT22;6902;52.158;11.574;2022-11-21T21:18:55;0.10;99.90
13659;DHT22;6902;52.158;11.574;2022-11-21T21:21:24;0.00;99.90
13659;DHT22;6902;52.158;11.574;2022-11-21T21:23:55;0.00;99.90
13659;DHT22;6902;52.158;11.574;2022-11-21T21:26:26;0.00;99.90
13659;DHT22;6902;52.158;11.574;2022-11-21T21:28:55;0.00;99.90
13659;DHT22;6902;52.158;11.574;2022-11-21T21:31:23;0.00;99.90
13659;DHT22;6902;52.158;11.574;2022-11-21T21:33:50;0.10;99.90
13659;DHT22;6902;52.158;11.574;2022-11-21T21:36:19;0.10;99.90
13659;DHT22;6902;52.158;11.574;2022-11-21T21:38:49;0.00;99.90
13659;DHT22;6902;52.158;11.574;2022-11-21T21:41:16;0.00;99.90
13659;DHT22;6902;52.158;11.574;2022-11-21T21:43:47;0.00;99.90
13659;DHT22;6902;52.158;11.574;2022-11-21T21:46:16;0.00;99.90
13659;DHT22;6902;52.158;11.574;2022-11-21T21:48:44;0.00;99.90
13659;DHT22;6902;52.158;11.574;2022-11-21T21:51:12;0.00;99.90
13659;DHT22;6902;52.158;11.574;2022-11-21T21:53:40;0.00;99.90
13659;DHT22;6902;52.158;11.574;2022-11-21T21:56:08;0.10;99.90
13659;DHT22;6902;52.158;11.574;2022-11-21T21:58:37;0.10;99.90
13659;DHT22;6902;52.158;11.574;2022-11-21T22:01:07;0.10;99.90
13659;DHT22;6902;52.158;11.574;2022-11-21T22:03:35;0.10;99.90
13659;DHT22;6902;52.158;11.574;2022-11-21T22:06:03;0.00;99.90
13659;DHT22;6902;52.158;11.574;2022-11-21T22:08:33;0.20;99.90
13659;DHT22;6902;52.158;11.574;2022-11-21T22:11:01;0.20;99.90
13659;DHT22;6902;52.158;11.574;2022-11-21T22:13:28;0.20;99.90
13659;DHT22;6902;52.158;11.574;2022-11-21T22:15:56;0.20;99.90
13659;DHT22;6902;52.158;11.574;2022-11-21T22:18:25;0.20;99.90
13659;DHT22;6902;52.158;11.574;2022-11-21T22:20:52;0.30;99.90
13659;DHT22;6902;52.158;11.574;2022-11-21T22:23:19;0.30;99.90
13659;DHT22;6902;52.158;11.574;2022-11-21T22:25:47;0.30;99.90
13659;DHT22;6902;52.158;11.574;2022-11-21T22:28:14;0.30;99.90
13659;DHT22;6902;52.158;11.574;2022-11-21T22:30:41;0.40;99.90
13659;DHT22;6902;52.158;11.574;2022-11-21T22:33:08;0.40;99.90
13659;DHT22;6902;52.158;11.574;2022-11-21T22:35:37;0.40;99.90
13659;DHT22;6902;52.158;11.574;2022-11-21T22:38:04;0.40;99.90
13659;DHT22;6902;52.158;11.574;2022-11-21T22:40:32;0.40;99.90
13659;DHT22;6902;52.158;11.574;2022-11-21T22:42:58;0.40;99.90
13659;DHT22;6902;52.158;11.574;2022-11-21T22:45:26;0.40;99.90
13659;DHT22;6902;52.158;11.574;2022-11-21T22:47:53;0.40;99.90
13659;DHT22;6902;52.158;11.574;2022-11-21T22:50:20;0.40;99.90
13659;DHT22;6902;52.158;11.574;2022-11-21T22:52:49;0.50;99.90
13659;DHT22;6902;52.158;11.574;2022-11-21T22:55:16;0.40;99.90
13659;DHT22;6902;52.158;11.574;2022-11-21T22:57:43;0.50;99.90
13659;DHT22;6902;52.158;11.574;2022-11-21T23:00:12;0.40;99.90
13659;DHT22;6902;52.158;11.574;2022-11-21T23:02:39;0.50;99.90
13659;DHT22;6902;52.158;11.574;2022-11-21T23:05:07;0.50;99.90
13659;DHT22;6902;52.158;11.574;2022-11-21T23:07:34;0.50;99.90
13659;DHT22;6902;52.158;11.574;2022-11-21T23:10:03;0.50;99.90
13659;DHT22;6902;52.158;11.574;2022-11-21T23:12:31;0.50;99.90
13659;DHT22;6902;52.158;11.574;2022-11-21T23:14:58;0.60;99.90